sensor_id;sensor_type;location;lat;lon;timestamp;P1;durP1;ratioP1;P2;durP2;ratioP2
6580;SDS011;3324;50.796;7.228;2022-09-30T00:01:42;0.30;;;0.30;;
6580;SDS011;3324;50.796;7.228;2022-09-30T00:04:09;0.30;;;0.30;;
6580;SDS011;3324;50.796;7.228;2022-09-30T00:06:38;0.30;;;0.30;;
6580;SDS011;3324;50.796;7.228;2022-09-30T00:09:03;0.30;;;0.30;;
6580;SDS011;3324;50.796;7.228;2022-09-30T00:11:30;2.10;;;0.60;;
6580;SDS011;3324;50.796;7.228;2022-09-30T00:13:58;2.10;;;0.60;;
6580;SDS011;3324;50.796;7.228;2022-09-30T00:16:26;2.10;;;0.60;;
6580;SDS011;3324;50.796;7.228;2022-09-30T00:18:58;0.30;;;0.30;;
6580;SDS011;3324;50.796;7.228;2022-09-30T00:21:25;0.30;;;0.30;;
6580;SDS011;3324;50.796;7.228;2022-09-30T00:23:54;0.30;;;0.30;;
6580;SDS011;3324;50.796;7.228;2022-09-30T00:26:21;0.30;;;0.30;;
6580;SDS011;3324;50.796;7.228;2022-09-30T00:28:49;2.10;;;0.60;;
6580;SDS011;3324;50.796;7.228;2022-09-30T00:31:16;0.30;;;0.30;;
6580;SDS011;3324;50.796;7.228;2022-09-30T00:33:43;2.10;;;0.60;;
6580;SDS011;3324;50.796;7.228;2022-09-30T00:36:30;0.30;;;0.22;;
6580;SDS011;3324;50.796;7.228;2022-09-30T00:38:55;0.30;;;0.20;;
6580;SDS011;3324;50.796;7.228;2022-09-30T00:41:21;0.30;;;0.30;;
6580;SDS011;3324;50.796;7.228;2022-09-30T00:43:47;0.30;;;0.20;;
6580;SDS011;3324;50.796;7.228;2022-09-30T00:49:13;0.30;;;0.20;;
6580;SDS011;3324;50.796;7.228;2022-09-30T00:51:44;2.10;;;0.60;;
6580;SDS011;3324;50.796;7.228;2022-09-30T00:54:15;0.30;;;0.20;;
6580;SDS011;3324;50.796;7.228;2022-09-30T00:56:47;2.10;;;0.60;;
6580;SDS011;3324;50.796;7.228;2022-09-30T00:59:23;0.30;;;0.30;;
6580;SDS011;3324;50.796;7.228;2022-09-30T01:01:51;0.30;;;0.30;;
6580;SDS011;3324;50.796;7.228;2022-09-30T01:04:18;0.30;;;0.20;;
6580;SDS011;3324;50.796;7.228;2022-09-30T01:06:54;2.10;;;0.60;;
6580;SDS011;3324;50.796;7.228;2022-09-30T01:09:24;0.30;;;0.20;;
6580;SDS011;3324;50.796;7.228;2022-09-30T01:11:50;0.30;;;0.20;;
6580;SDS011;3324;50.796;7.228;2022-09-30T01:14:18;2.10;;;0.60;;
6580;SDS011;3324;50.796;7.228;2022-09-30T01:27:56;0.20;;;0.20;;
6580;SDS011;3324;50.796;7.228;2022-09-30T01:38:43;0.30;;;0.20;;
6580;SDS011;3324;50.796;7.228;2022-09-30T01:51:42;2.10;;;0.60;;
6580;SDS011;3324;50.796;7.228;2022-09-30T01:56:54;0.30;;;0.20;;
6580;SDS011;3324;50.796;7.228;2022-09-30T02:02:03;2.30;;;0.60;;
6580;SDS011;3324;50.796;7.228;2022-09-30T02:04:38;0.30;;;0.30;;
6580;SDS011;3324;50.796;7.228;2022-09-30T02:07:11;0.30;;;0.30;;
6580;SDS011;3324;50.796;7.228;2022-09-30T02:09:42;2.10;;;0.60;;
6580;SDS011;3324;50.796;7.228;2022-09-30T02:12:14;2.10;;;0.60;;
6580;SDS011;3324;50.796;7.228;2022-09-30T02:14:46;0.30;;;0.20;;
6580;SDS011;3324;50.796;7.228;2022-09-30T02:17:18;0.30;;;0.30;;
6580;SDS011;3324;50.796;7.228;2022-09-30T02:19:51;2.10;;;0.60;;
6580;SDS011;3324;50.796;7.228;2022-09-30T02:22:57;0.30;;;0.20;;
6580;SDS011;3324;50.796;7.228;2022-09-30T02:25:20;2.10;;;0.60;;
6580;SDS011;3324;50.796;7.228;2022-09-30T02:27:52;2.10;;;0.60;;
6580;SDS011;3324;50.796;7.228;2022-09-30T02:30:22;0.30;;;0.30;;
6580;SDS011;3324;50.796;7.228;2022-09-30T02:32:49;0.30;;;0.20;;
6580;SDS011;3324;50.796;7.228;2022-09-30T02:35:25;0.30;;;0.30;;
6580;SDS011;3324;50.796;7.228;2022-09-30T02:38:02;0.30;;;0.20;;
6580;SDS011;3324;50.796;7.228;2022-09-30T02:40:41;2.10;;;0.60;;
6580;SDS011;3324;50.796;7.228;2022-09-30T02:43:17;0.30;;;0.20;;
6580;SDS011;3324;50.796;7.228;2022-09-30T02:48:27;0.30;;;0.20;;
6580;SDS011;3324;50.796;7.228;2022-09-30T02:53:52;0.30;;;0.20;;
6580;SDS011;3324;50.796;7.228;2022-09-30T02:59:18;0.30;;;0.30;;
6580;SDS011;3324;50.796;7.228;2022-09-30T03:01:46;2.10;;;0.60;;
6580;SDS011;3324;50.796;7.228;2022-09-30T03:04:13;0.30;;;0.30;;
6580;SDS011;3324;50.796;7.228;2022-09-30T03:06:43;0.30;;;0.30;;
6580;SDS011;3324;50.796;7.228;2022-09-30T03:09:08;0.30;;;0.30;;
6580;SDS011;3324;50.796;7.228;2022-09-30T03:11:34;2.10;;;0.70;;
6580;SDS011;3324;50.796;7.228;2022-09-30T03:30:39;0.30;;;0.30;;
6580;SDS011;3324;50.796;7.228;2022-09-30T03:33:36;0.30;;;0.30;;
6580;SDS011;3324;50.796;7.228;2022-09-30T03:37:11;0.30;;;0.30;;
6580;SDS011;3324;50.796;7.228;2022-09-30T03:42:18;0.30;;;0.30;;
6580;SDS011;3324;50.796;7.228;2022-09-30T03:45:00;2.10;;;0.60;;
6580;SDS011;3324;50.796;7.228;2022-09-30T03:47:32;0.30;;;0.30;;
6580;SDS011;3324;50.796;7.228;2022-09-30T03:50:01;0.30;;;0.30;;
6580;SDS011;3324;50.796;7.228;2022-09-30T03:52:31;2.10;;;0.60;;
6580;SDS011;3324;50.796;7.228;2022-09-30T03:54:59;0.30;;;0.20;;
6580;SDS011;3324;50.796;7.228;2022-09-30T03:57:27;0.30;;;0.20;;
6580;SDS011;3324;50.796;7.228;2022-09-30T03:59:54;0.20;;;0.20;;
6580;SDS011;3324;50.796;7.228;2022-09-30T04:02:24;0.30;;;0.20;;
6580;SDS011;3324;50.796;7.228;2022-09-30T04:04:50;2.10;;;0.50;;
6580;SDS011;3324;50.796;7.228;2022-09-30T04:07:16;0.30;;;0.20;;
6580;SDS011;3324;50.796;7.228;2022-09-30T04:09:42;0.30;;;0.10;;
6580;SDS011;3324;50.796;7.228;2022-09-30T04:12:07;0.20;;;0.10;;
6580;SDS011;3324;50.796;7.228;2022-09-30T04:14:33;0.30;;;0.20;;
6580;SDS011;3324;50.796;7.228;2022-09-30T04:16:59;2.10;;;0.50;;
6580;SDS011;3324;50.796;7.228;2022-09-30T04:19:26;0.10;;;0.10;;
6580;SDS011;3324;50.796;7.228;2022-09-30T04:21:52;2.10;;;0.50;;
6580;SDS011;3324;50.796;7.228;2022-09-30T04:24:20;0.00;;;0.00;;
6580;SDS011;3324;50.796;7.228;2022-09-30T04:26:47;1.90;;;0.50;;
6580;SDS011;3324;50.796;7.228;2022-09-30T04:29:13;1.90;;;0.50;;
6580;SDS011;3324;50.796;7.228;2022-09-30T04:31:39;0.50;;;0.50;;
6580;SDS011;3324;50.796;7.228;2022-09-30T04:34:04;0.40;;;0.40;;
6580;SDS011;3324;50.796;7.228;2022-09-30T04:36:30;0.30;;;0.30;;
6580;SDS011;3324;50.796;7.228;2022-09-30T04:38:55;0.30;;;0.30;;
6580;SDS011;3324;50.796;7.228;2022-09-30T04:41:21;2.20;;;0.70;;
6580;SDS011;3324;50.796;7.228;2022-09-30T04:43:47;2.20;;;0.70;;
6580;SDS011;3324;50.796;7.228;2022-09-30T04:46:14;0.30;;;0.30;;
6580;SDS011;3324;50.796;7.228;2022-09-30T04:48:40;2.20;;;0.70;;
6580;SDS011;3324;50.796;7.228;2022-09-30T04:51:12;2.20;;;0.70;;
6580;SDS011;3324;50.796;7.228;2022-09-30T04:53:39;2.20;;;0.60;;
6580;SDS011;3324;50.796;7.228;2022-09-30T04:56:05;2.20;;;0.70;;
6580;SDS011;3324;50.796;7.228;2022-09-30T04:58:30;2.20;;;0.70;;
6580;SDS011;3324;50.796;7.228;2022-09-30T05:01:00;0.30;;;0.30;;
6580;SDS011;3324;50.796;7.228;2022-09-30T05:03:31;0.30;;;0.20;;
6580;SDS011;3324;50.796;7.228;2022-09-30T05:05:56;0.30;;;0.20;;
6580;SDS011;3324;50.796;7.228;2022-09-30T05:08:22;0.30;;;0.20;;
6580;SDS011;3324;50.796;7.228;2022-09-30T05:10:58;2.40;;;0.60;;
6580;SDS011;3324;50.796;7.228;2022-09-30T05:13:25;0.30;;;0.20;;
6580;SDS011;3324;50.796;7.228;2022-09-30T05:15:56;2.20;;;0.60;;
6580;SDS011;3324;50.796;7.228;2022-09-30T05:18:21;2.20;;;0.60;;
6580;SDS011;3324;50.796;7.228;2022-09-30T05:20:50;0.30;;;0.20;;
6580;SDS011;3324;50.796;7.228;2022-09-30T05:23:17;0.40;;;0.20;;
6580;SDS011;3324;50.796;7.228;2022-09-30T05:25:43;2.40;;;0.60;;
6580;SDS011;3324;50.796;7.228;2022-09-30T05:28:09;0.30;;;0.20;;
6580;SDS011;3324;50.796;7.228;2022-09-30T05:30:34;0.30;;;0.20;;
6580;SDS011;3324;50.796;7.228;2022-09-30T05:33:00;0.30;;;0.20;;
6580;SDS011;3324;50.796;7.228;2022-09-30T05:35:26;0.30;;;0.20;;
6580;SDS011;3324;50.796;7.228;2022-09-30T05:37:52;2.20;;;0.70;;
6580;SDS011;3324;50.796;7.228;2022-09-30T05:40:17;2.20;;;0.70;;
6580;SDS011;3324;50.796;7.228;2022-09-30T05:42:43;0.30;;;0.30;;
6580;SDS011;3324;50.796;7.228;2022-09-30T05:45:10;2.20;;;0.70;;
6580;SDS011;3324;50.796;7.228;2022-09-30T05:47:35;0.30;;;0.30;;
6580;SDS011;3324;50.796;7.228;2022-09-30T05:50:01;0.30;;;0.30;;
6580;SDS011;3324;50.796;7.228;2022-09-30T05:52:27;0.30;;;0.30;;
6580;SDS011;3324;50.796;7.228;2022-09-30T05:54:53;0.30;;;0.30;;
6580;SDS011;3324;50.796;7.228;2022-09-30T05:57:19;0.30;;;0.30;;
6580;SDS011;3324;50.796;7.228;2022-09-30T05:59:45;0.40;;;0.40;;
6580;SDS011;3324;50.796;7.228;2022-09-30T06:02:11;2.20;;;0.70;;
6580;SDS011;3324;50.796;7.228;2022-09-30T06:04:37;0.30;;;0.30;;
6580;SDS011;3324;50.796;7.228;2022-09-30T06:07:03;2.20;;;0.70;;
6580;SDS011;3324;50.796;7.228;2022-09-30T06:09:30;2.20;;;0.60;;
6580;SDS011;3324;50.796;7.228;2022-09-30T06:11:55;2.20;;;0.60;;
6580;SDS011;3324;50.796;7.228;2022-09-30T06:14:24;0.30;;;0.30;;
6580;SDS011;3324;50.796;7.228;2022-09-30T06:16:50;0.30;;;0.30;;
6580;SDS011;3324;50.796;7.228;2022-09-30T06:19:15;0.30;;;0.30;;
6580;SDS011;3324;50.796;7.228;2022-09-30T06:21:41;0.30;;;0.30;;
6580;SDS011;3324;50.796;7.228;2022-09-30T06:24:07;2.40;;;0.60;;
6580;SDS011;3324;50.796;7.228;2022-09-30T06:26:37;0.30;;;0.30;;
6580;SDS011;3324;50.796;7.228;2022-09-30T06:29:03;0.30;;;0.20;;
6580;SDS011;3324;50.796;7.228;2022-09-30T06:31:29;2.20;;;0.60;;
6580;SDS011;3324;50.796;7.228;2022-09-30T06:33:55;2.20;;;0.60;;
6580;SDS011;3324;50.796;7.228;2022-09-30T06:36:21;2.20;;;0.60;;
6580;SDS011;3324;50.796;7.228;2022-09-30T06:38:47;2.20;;;0.60;;
6580;SDS011;3324;50.796;7.228;2022-09-30T06:41:18;0.30;;;0.30;;
6580;SDS011;3324;50.796;7.228;2022-09-30T06:43:44;0.40;;;0.40;;
6580;SDS011;3324;50.796;7.228;2022-09-30T06:46:09;0.40;;;0.40;;
6580;SDS011;3324;50.796;7.228;2022-09-30T06:48:36;0.40;;;0.40;;
6580;SDS011;3324;50.796;7.228;2022-09-30T06:51:02;0.40;;;0.40;;
6580;SDS011;3324;50.796;7.228;2022-09-30T06:53:28;2.20;;;0.70;;
6580;SDS011;3324;50.796;7.228;2022-09-30T06:55:54;2.40;;;0.70;;
6580;SDS011;3324;50.796;7.228;2022-09-30T06:58:20;2.10;;;0.70;;
6580;SDS011;3324;50.796;7.228;2022-09-30T07:00:54;0.30;;;0.30;;
6580;SDS011;3324;50.796;7.228;2022-09-30T07:03:24;2.20;;;0.70;;
6580;SDS011;3324;50.796;7.228;2022-09-30T07:05:53;0.30;;;0.30;;
6580;SDS011;3324;50.796;7.228;2022-09-30T07:08:21;0.40;;;0.40;;
6580;SDS011;3324;50.796;7.228;2022-09-30T07:10:49;2.15;;;0.70;;
6580;SDS011;3324;50.796;7.228;2022-09-30T07:13:15;2.20;;;0.70;;
6580;SDS011;3324;50.796;7.228;2022-09-30T07:15:41;2.10;;;0.80;;
6580;SDS011;3324;50.796;7.228;2022-09-30T07:18:06;0.30;;;0.30;;
6580;SDS011;3324;50.796;7.228;2022-09-30T07:20:32;0.40;;;0.40;;
6580;SDS011;3324;50.796;7.228;2022-09-30T07:22:58;0.30;;;0.30;;
6580;SDS011;3324;50.796;7.228;2022-09-30T07:25:24;2.10;;;0.70;;
6580;SDS011;3324;50.796;7.228;2022-09-30T07:27:49;2.20;;;0.70;;
6580;SDS011;3324;50.796;7.228;2022-09-30T07:30:15;0.30;;;0.30;;
6580;SDS011;3324;50.796;7.228;2022-09-30T07:32:42;0.30;;;0.30;;
6580;SDS011;3324;50.796;7.228;2022-09-30T07:35:07;0.40;;;0.40;;
6580;SDS011;3324;50.796;7.228;2022-09-30T07:37:33;0.40;;;0.40;;
6580;SDS011;3324;50.796;7.228;2022-09-30T07:40:00;0.40;;;0.40;;
6580;SDS011;3324;50.796;7.228;2022-09-30T07:42:28;0.20;;;0.20;;
6580;SDS011;3324;50.796;7.228;2022-09-30T07:44:55;0.30;;;0.30;;
6580;SDS011;3324;50.796;7.228;2022-09-30T07:47:20;0.30;;;0.20;;
6580;SDS011;3324;50.796;7.228;2022-09-30T07:49:46;2.30;;;0.60;;
6580;SDS011;3324;50.796;7.228;2022-09-30T07:52:12;2.10;;;0.60;;
6580;SDS011;3324;50.796;7.228;2022-09-30T07:54:38;2.10;;;0.60;;
6580;SDS011;3324;50.796;7.228;2022-09-30T07:57:05;2.10;;;0.60;;
6580;SDS011;3324;50.796;7.228;2022-09-30T07:59:33;2.10;;;0.60;;
6580;SDS011;3324;50.796;7.228;2022-09-30T08:02:02;0.30;;;0.20;;
6580;SDS011;3324;50.796;7.228;2022-09-30T08:04:28;0.30;;;0.20;;
6580;SDS011;3324;50.796;7.228;2022-09-30T08:06:55;0.30;;;0.20;;
6580;SDS011;3324;50.796;7.228;2022-09-30T08:09:23;2.10;;;0.60;;
6580;SDS011;3324;50.796;7.228;2022-09-30T08:11:50;0.30;;;0.20;;
6580;SDS011;3324;50.796;7.228;2022-09-30T08:14:17;0.30;;;0.20;;
6580;SDS011;3324;50.796;7.228;2022-09-30T08:16:48;2.10;;;0.60;;
6580;SDS011;3324;50.796;7.228;2022-09-30T08:19:17;2.10;;;0.60;;
6580;SDS011;3324;50.796;7.228;2022-09-30T08:21:45;0.30;;;0.30;;
6580;SDS011;3324;50.796;7.228;2022-09-30T08:24:11;0.30;;;0.20;;
6580;SDS011;3324;50.796;7.228;2022-09-30T08:26:37;0.30;;;0.30;;
6580;SDS011;3324;50.796;7.228;2022-09-30T08:29:04;0.30;;;0.30;;
6580;SDS011;3324;50.796;7.228;2022-09-30T08:31:30;0.30;;;0.30;;
6580;SDS011;3324;50.796;7.228;2022-09-30T08:33:57;2.10;;;0.70;;
6580;SDS011;3324;50.796;7.228;2022-09-30T08:36:23;0.30;;;0.30;;
6580;SDS011;3324;50.796;7.228;2022-09-30T08:38:50;2.10;;;0.70;;
6580;SDS011;3324;50.796;7.228;2022-09-30T08:46:44;0.30;;;0.30;;
6580;SDS011;3324;50.796;7.228;2022-09-30T08:51:54;0.30;;;0.30;;
6580;SDS011;3324;50.796;7.228;2022-09-30T08:54:24;0.30;;;0.30;;
6580;SDS011;3324;50.796;7.228;2022-09-30T08:56:54;2.10;;;0.70;;
6580;SDS011;3324;50.796;7.228;2022-09-30T09:01:51;0.30;;;0.30;;
6580;SDS011;3324;50.796;7.228;2022-09-30T09:04:22;0.30;;;0.30;;
6580;SDS011;3324;50.796;7.228;2022-09-30T09:15:17;0.30;;;0.30;;
6580;SDS011;3324;50.796;7.228;2022-09-30T09:20:54;2.10;;;0.70;;
6580;SDS011;3324;50.796;7.228;2022-09-30T09:23:21;0.40;;;0.40;;
6580;SDS011;3324;50.796;7.228;2022-09-30T09:25:48;2.10;;;0.90;;
6580;SDS011;3324;50.796;7.228;2022-09-30T09:31:00;0.60;;;0.60;;
6580;SDS011;3324;50.796;7.228;2022-09-30T09:33:29;0.60;;;0.60;;
6580;SDS011;3324;50.796;7.228;2022-09-30T09:44:31;2.40;;;1.80;;
6580;SDS011;3324;50.796;7.228;2022-09-30T09:47:17;0.50;;;0.50;;
6580;SDS011;3324;50.796;7.228;2022-09-30T09:49:54;3.10;;;3.10;;
6580;SDS011;3324;50.796;7.228;2022-09-30T09:52:47;2.35;;;2.35;;
6580;SDS011;3324;50.796;7.228;2022-09-30T09:55:35;5.22;;;5.13;;
6580;SDS011;3324;50.796;7.228;2022-09-30T09:58:06;6.05;;;5.95;;
6580;SDS011;3324;50.796;7.228;2022-09-30T10:00:37;7.07;;;6.97;;
6580;SDS011;3324;50.796;7.228;2022-09-30T10:03:19;7.60;;;7.50;;
6580;SDS011;3324;50.796;7.228;2022-09-30T10:08:29;8.60;;;8.30;;
6580;SDS011;3324;50.796;7.228;2022-09-30T10:10:58;7.55;;;7.45;;
6580;SDS011;3324;50.796;7.228;2022-09-30T10:13:29;9.70;;;9.40;;
6580;SDS011;3324;50.796;7.228;2022-09-30T10:16:34;9.95;;;9.65;;
6580;SDS011;3324;50.796;7.228;2022-09-30T10:19:02;11.03;;;10.63;;
6580;SDS011;3324;50.796;7.228;2022-09-30T10:21:29;11.70;;;11.20;;
6580;SDS011;3324;50.796;7.228;2022-09-30T10:23:55;11.40;;;11.00;;
6580;SDS011;3324;50.796;7.228;2022-09-30T10:26:24;10.60;;;10.20;;
6580;SDS011;3324;50.796;7.228;2022-09-30T10:28:55;10.70;;;10.30;;
6580;SDS011;3324;50.796;7.228;2022-09-30T10:34:00;10.70;;;10.30;;
6580;SDS011;3324;50.796;7.228;2022-09-30T10:36:33;10.70;;;10.30;;
6580;SDS011;3324;50.796;7.228;2022-09-30T10:39:02;11.60;;;11.00;;
6580;SDS011;3324;50.796;7.228;2022-09-30T10:41:32;11.00;;;10.60;;
6580;SDS011;3324;50.796;7.228;2022-09-30T10:44:06;11.43;;;10.82;;
6580;SDS011;3324;50.796;7.228;2022-09-30T10:46:42;10.90;;;10.50;;
6580;SDS011;3324;50.796;7.228;2022-09-30T10:49:23;11.75;;;11.05;;
6580;SDS011;3324;50.796;7.228;2022-09-30T10:51:55;11.70;;;11.00;;
6580;SDS011;3324;50.796;7.228;2022-09-30T10:57:04;11.50;;;11.00;;
6580;SDS011;3324;50.796;7.228;2022-09-30T10:59:37;11.27;;;10.77;;
6580;SDS011;3324;50.796;7.228;2022-09-30T11:04:39;10.88;;;10.48;;
6580;SDS011;3324;50.796;7.228;2022-09-30T11:07:10;10.20;;;9.90;;
6580;SDS011;3324;50.796;7.228;2022-09-30T11:12:29;10.90;;;10.50;;
6580;SDS011;3324;50.796;7.228;2022-09-30T11:15:06;11.40;;;10.90;;
6580;SDS011;3324;50.796;7.228;2022-09-30T11:17:51;11.50;;;11.00;;
6580;SDS011;3324;50.796;7.228;2022-09-30T11:20:30;11.75;;;11.15;;
6580;SDS011;3324;50.796;7.228;2022-09-30T11:23:21;11.80;;;11.20;;
6580;SDS011;3324;50.796;7.228;2022-09-30T11:26:10;11.50;;;11.00;;
6580;SDS011;3324;50.796;7.228;2022-09-30T11:32:12;11.30;;;10.80;;
6580;SDS011;3324;50.796;7.228;2022-09-30T11:34:55;10.40;;;10.00;;
6580;SDS011;3324;50.796;7.228;2022-09-30T11:40:28;11.50;;;11.00;;
6580;SDS011;3324;50.796;7.228;2022-09-30T11:56:37;11.60;;;11.00;;
6580;SDS011;3324;50.796;7.228;2022-09-30T11:59:21;11.80;;;11.20;;
6580;SDS011;3324;50.796;7.228;2022-09-30T12:02:17;12.10;;;11.40;;
6580;SDS011;3324;50.796;7.228;2022-09-30T12:08:18;12.45;;;11.75;;
6580;SDS011;3324;50.796;7.228;2022-09-30T12:10:54;12.35;;;11.65;;
6580;SDS011;3324;50.796;7.228;2022-09-30T12:13:29;12.60;;;11.90;;
6580;SDS011;3324;50.796;7.228;2022-09-30T12:16:00;12.30;;;11.60;;
6580;SDS011;3324;50.796;7.228;2022-09-30T12:20:58;13.10;;;12.30;;
6580;SDS011;3324;50.796;7.228;2022-09-30T12:23:31;12.80;;;12.00;;
6580;SDS011;3324;50.796;7.228;2022-09-30T12:26:01;14.20;;;13.10;;
6580;SDS011;3324;50.796;7.228;2022-09-30T12:28:31;12.50;;;11.80;;
6580;SDS011;3324;50.796;7.228;2022-09-30T12:34:11;11.90;;;11.30;;
6580;SDS011;3324;50.796;7.228;2022-09-30T12:48:02;12.30;;;11.60;;
6580;SDS011;3324;50.796;7.228;2022-09-30T12:50:39;12.20;;;11.40;;
6580;SDS011;3324;50.796;7.228;2022-09-30T12:53:31;12.10;;;11.40;;
6580;SDS011;3324;50.796;7.228;2022-09-30T12:56:06;11.70;;;11.10;;
6580;SDS011;3324;50.796;7.228;2022-09-30T12:58:40;12.30;;;11.60;;
6580;SDS011;3324;50.796;7.228;2022-09-30T13:01:17;12.40;;;11.70;;
6580;SDS011;3324;50.796;7.228;2022-09-30T13:04:08;12.50;;;11.80;;
6580;SDS011;3324;50.796;7.228;2022-09-30T13:19:35;12.93;;;11.93;;
6580;SDS011;3324;50.796;7.228;2022-09-30T13:32:41;12.05;;;11.35;;
6580;SDS011;3324;50.796;7.228;2022-09-30T13:40:53;11.80;;;11.20;;
6580;SDS011;3324;50.796;7.228;2022-09-30T13:43:41;12.60;;;11.70;;
6580;SDS011;3324;50.796;7.228;2022-09-30T13:46:27;11.90;;;11.30;;
6580;SDS011;3324;50.796;7.228;2022-09-30T13:51:45;12.60;;;11.90;;
6580;SDS011;3324;50.796;7.228;2022-09-30T13:54:14;13.60;;;12.60;;
6580;SDS011;3324;50.796;7.228;2022-09-30T13:56:47;13.80;;;12.80;;
6580;SDS011;3324;50.796;7.228;2022-09-30T13:59:19;12.80;;;11.90;;
6580;SDS011;3324;50.796;7.228;2022-09-30T14:05:31;11.80;;;11.20;;
6580;SDS011;3324;50.796;7.228;2022-09-30T14:21:49;11.80;;;11.20;;
6580;SDS011;3324;50.796;7.228;2022-09-30T14:24:24;12.20;;;11.40;;
6580;SDS011;3324;50.796;7.228;2022-09-30T14:29:50;11.60;;;10.90;;
6580;SDS011;3324;50.796;7.228;2022-09-30T14:32:25;10.20;;;9.90;;
6580;SDS011;3324;50.796;7.228;2022-09-30T14:34:57;10.80;;;10.40;;
6580;SDS011;3324;50.796;7.228;2022-09-30T14:39:59;12.40;;;11.60;;
6580;SDS011;3324;50.796;7.228;2022-09-30T14:44:56;12.70;;;11.80;;
6580;SDS011;3324;50.796;7.228;2022-09-30T14:47:29;12.40;;;11.60;;
6580;SDS011;3324;50.796;7.228;2022-09-30T14:50:08;12.75;;;11.85;;
6580;SDS011;3324;50.796;7.228;2022-09-30T14:52:55;12.57;;;11.87;;
6580;SDS011;3324;50.796;7.228;2022-09-30T14:57:54;13.10;;;12.30;;
6580;SDS011;3324;50.796;7.228;2022-09-30T15:00:41;13.00;;;12.20;;
6580;SDS011;3324;50.796;7.228;2022-09-30T15:03:09;13.15;;;12.35;;
6580;SDS011;3324;50.796;7.228;2022-09-30T15:05:36;14.10;;;13.00;;
6580;SDS011;3324;50.796;7.228;2022-09-30T15:08:08;12.40;;;11.70;;
6580;SDS011;3324;50.796;7.228;2022-09-30T15:10:35;13.20;;;12.20;;
6580;SDS011;3324;50.796;7.228;2022-09-30T15:13:01;13.40;;;12.60;;
6580;SDS011;3324;50.796;7.228;2022-09-30T15:15:34;13.05;;;12.25;;
6580;SDS011;3324;50.796;7.228;2022-09-30T15:20:52;12.05;;;11.27;;
6580;SDS011;3324;50.796;7.228;2022-09-30T15:23:24;11.00;;;10.50;;
6580;SDS011;3324;50.796;7.228;2022-09-30T15:25:52;11.20;;;10.70;;
6580;SDS011;3324;50.796;7.228;2022-09-30T15:28:18;10.70;;;10.30;;
6580;SDS011;3324;50.796;7.228;2022-09-30T15:30:44;11.75;;;11.05;;
6580;SDS011;3324;50.796;7.228;2022-09-30T15:33:15;11.20;;;10.70;;
6580;SDS011;3324;50.796;7.228;2022-09-30T15:35:43;11.40;;;10.90;;
6580;SDS011;3324;50.796;7.228;2022-09-30T15:38:20;11.70;;;11.10;;
6580;SDS011;3324;50.796;7.228;2022-09-30T15:41:10;11.30;;;10.80;;
6580;SDS011;3324;50.796;7.228;2022-09-30T15:43:37;12.20;;;11.40;;
6580;SDS011;3324;50.796;7.228;2022-09-30T15:48:39;10.70;;;10.30;;
6580;SDS011;3324;50.796;7.228;2022-09-30T15:56:38;10.70;;;10.20;;
6580;SDS011;3324;50.796;7.228;2022-09-30T15:59:05;10.00;;;9.70;;
6580;SDS011;3324;50.796;7.228;2022-09-30T16:01:38;11.80;;;11.10;;
6580;SDS011;3324;50.796;7.228;2022-09-30T16:06:47;11.00;;;10.60;;
6580;SDS011;3324;50.796;7.228;2022-09-30T16:12:33;11.40;;;10.80;;
6580;SDS011;3324;50.796;7.228;2022-09-30T16:15:09;11.50;;;11.00;;
6580;SDS011;3324;50.796;7.228;2022-09-30T16:17:38;9.40;;;9.20;;
6580;SDS011;3324;50.796;7.228;2022-09-30T16:25:28;10.35;;;10.05;;
6580;SDS011;3324;50.796;7.228;2022-09-30T16:28:00;9.80;;;9.40;;
6580;SDS011;3324;50.796;7.228;2022-09-30T16:30:35;10.67;;;10.13;;
6580;SDS011;3324;50.796;7.228;2022-09-30T16:33:10;11.55;;;10.95;;
6580;SDS011;3324;50.796;7.228;2022-09-30T16:35:39;9.90;;;9.60;;
6580;SDS011;3324;50.796;7.228;2022-09-30T16:38:06;11.90;;;11.20;;
6580;SDS011;3324;50.796;7.228;2022-09-30T16:40:36;11.40;;;10.90;;
6580;SDS011;3324;50.796;7.228;2022-09-30T16:43:03;11.20;;;10.70;;
6580;SDS011;3324;50.796;7.228;2022-09-30T16:45:29;11.80;;;11.10;;
6580;SDS011;3324;50.796;7.228;2022-09-30T16:47:55;11.70;;;11.00;;
6580;SDS011;3324;50.796;7.228;2022-09-30T16:50:23;11.67;;;10.97;;
6580;SDS011;3324;50.796;7.228;2022-09-30T16:53:01;11.00;;;10.60;;
6580;SDS011;3324;50.796;7.228;2022-09-30T16:55:26;9.70;;;9.40;;
6580;SDS011;3324;50.796;7.228;2022-09-30T16:57:56;10.50;;;10.00;;
6580;SDS011;3324;50.796;7.228;2022-09-30T17:00:22;11.05;;;10.45;;
6580;SDS011;3324;50.796;7.228;2022-09-30T17:02:52;11.30;;;10.70;;
6580;SDS011;3324;50.796;7.228;2022-09-30T17:05:19;11.25;;;10.65;;
6580;SDS011;3324;50.796;7.228;2022-09-30T17:07:46;9.70;;;9.40;;
6580;SDS011;3324;50.796;7.228;2022-09-30T17:12:43;10.10;;;9.60;;
6580;SDS011;3324;50.796;7.228;2022-09-30T17:15:09;8.50;;;8.30;;
6580;SDS011;3324;50.796;7.228;2022-09-30T17:17:35;8.60;;;8.40;;
6580;SDS011;3324;50.796;7.228;2022-09-30T17:20:01;7.80;;;7.70;;
6580;SDS011;3324;50.796;7.228;2022-09-30T17:22:26;8.80;;;8.60;;
6580;SDS011;3324;50.796;7.228;2022-09-30T17:24:52;8.27;;;7.97;;
6580;SDS011;3324;50.796;7.228;2022-09-30T17:27:17;0.50;;;0.50;;
6580;SDS011;3324;50.796;7.228;2022-09-30T17:29:43;2.10;;;2.10;;
6580;SDS011;3324;50.796;7.228;2022-09-30T17:32:09;2.53;;;2.33;;
6580;SDS011;3324;50.796;7.228;2022-09-30T17:34:34;4.40;;;4.40;;
6580;SDS011;3324;50.796;7.228;2022-09-30T17:37:00;10.20;;;9.90;;
6580;SDS011;3324;50.796;7.228;2022-09-30T17:39:25;8.75;;;8.55;;
6580;SDS011;3324;50.796;7.228;2022-09-30T17:41:54;9.00;;;8.80;;
6580;SDS011;3324;50.796;7.228;2022-09-30T17:44:38;10.07;;;9.77;;
6580;SDS011;3324;50.796;7.228;2022-09-30T17:47:04;8.50;;;8.30;;
6580;SDS011;3324;50.796;7.228;2022-09-30T17:49:30;6.00;;;5.90;;
6580;SDS011;3324;50.796;7.228;2022-09-30T17:51:57;0.30;;;0.30;;
6580;SDS011;3324;50.796;7.228;2022-09-30T17:54:23;0.90;;;0.90;;
6580;SDS011;3324;50.796;7.228;2022-09-30T17:56:48;3.55;;;3.35;;
6580;SDS011;3324;50.796;7.228;2022-09-30T17:59:14;3.40;;;3.17;;
6580;SDS011;3324;50.796;7.228;2022-09-30T18:01:48;8.20;;;8.00;;
6580;SDS011;3324;50.796;7.228;2022-09-30T18:04:14;9.07;;;8.88;;
6580;SDS011;3324;50.796;7.228;2022-09-30T18:06:42;9.00;;;8.80;;
6580;SDS011;3324;50.796;7.228;2022-09-30T18:09:07;10.30;;;10.00;;
6580;SDS011;3324;50.796;7.228;2022-09-30T18:11:33;11.40;;;10.80;;
6580;SDS011;3324;50.796;7.228;2022-09-30T18:13:59;10.60;;;10.10;;
6580;SDS011;3324;50.796;7.228;2022-09-30T18:16:26;9.10;;;8.70;;
6580;SDS011;3324;50.796;7.228;2022-09-30T18:18:55;9.70;;;9.40;;
6580;SDS011;3324;50.796;7.228;2022-09-30T18:21:22;9.90;;;9.40;;
6580;SDS011;3324;50.796;7.228;2022-09-30T18:23:49;11.20;;;10.60;;
6580;SDS011;3324;50.796;7.228;2022-09-30T18:26:16;10.90;;;10.50;;
6580;SDS011;3324;50.796;7.228;2022-09-30T18:28:41;10.53;;;10.13;;
6580;SDS011;3324;50.796;7.228;2022-09-30T18:31:08;10.40;;;10.10;;
6580;SDS011;3324;50.796;7.228;2022-09-30T18:33:34;11.00;;;10.40;;
6580;SDS011;3324;50.796;7.228;2022-09-30T18:36:01;11.40;;;10.80;;
6580;SDS011;3324;50.796;7.228;2022-09-30T18:38:32;10.98;;;10.57;;
6580;SDS011;3324;50.796;7.228;2022-09-30T18:40:58;10.70;;;10.30;;
6580;SDS011;3324;50.796;7.228;2022-09-30T18:43:24;10.90;;;10.50;;
6580;SDS011;3324;50.796;7.228;2022-09-30T18:45:54;10.30;;;10.00;;
6580;SDS011;3324;50.796;7.228;2022-09-30T18:48:21;9.50;;;9.20;;
6580;SDS011;3324;50.796;7.228;2022-09-30T18:50:48;9.00;;;8.60;;
6580;SDS011;3324;50.796;7.228;2022-09-30T18:53:16;8.97;;;8.77;;
6580;SDS011;3324;50.796;7.228;2022-09-30T18:55:46;7.40;;;7.30;;
6580;SDS011;3324;50.796;7.228;2022-09-30T18:58:12;0.25;;;0.25;;
6580;SDS011;3324;50.796;7.228;2022-09-30T19:00:41;0.20;;;0.20;;
6580;SDS011;3324;50.796;7.228;2022-09-30T19:03:07;0.20;;;0.10;;
6580;SDS011;3324;50.796;7.228;2022-09-30T19:05:34;0.50;;;0.50;;
6580;SDS011;3324;50.796;7.228;2022-09-30T19:08:00;0.40;;;0.40;;
6580;SDS011;3324;50.796;7.228;2022-09-30T19:10:25;2.40;;;1.60;;
6580;SDS011;3324;50.796;7.228;2022-09-30T19:12:51;2.60;;;2.40;;
6580;SDS011;3324;50.796;7.228;2022-09-30T19:15:17;0.50;;;0.50;;
6580;SDS011;3324;50.796;7.228;2022-09-30T19:17:43;0.50;;;0.50;;
6580;SDS011;3324;50.796;7.228;2022-09-30T19:20:09;0.50;;;0.50;;
6580;SDS011;3324;50.796;7.228;2022-09-30T19:22:35;0.50;;;0.50;;